MST,Max TemperatureF,Mean TemperatureF,Min TemperatureF,Max Dew PointF,MeanDew PointF,Min DewpointF,Max Humidity, Mean Humidity, Min Humidity, Max Sea Level PressureIn, Mean Sea Level PressureIn, Min Sea Level PressureIn, Max VisibilityMiles, Mean VisibilityMiles, Min VisibilityMiles, Max Wind SpeedMPH, Mean Wind SpeedMPH, Max Gust SpeedMPH,PrecipitationIn, CloudCover, Events, WindDirDegrees
2012-11-1,61,48,34,28,26,22,70,47,24,29.98,29.89,29.80,10,10,10,17,7,,0.00,1,,309
2012-11-2,58,46,33,27,20,15,52,36,19,30.13,30.02,29.89,10,10,10,18,11,24,0.00,0,,326
2012-11-3,56,41,25,24,20,16,81,51,20,30.23,30.15,30.09,10,10,10,14,6,,0.00,0,,296
2012-11-4,58,48,37,25,21,18,51,37,23,30.31,30.19,30.08,10,10,10,14,8,16,0.00,0,,337
2012-11-5,62,48,34,30,27,24,69,50,30,30.29,30.19,30.09,10,10,10,32,12,43,0.00,0,,288
2012-11-6,64,51,38,31,28,23,57,42,27,30.22,30.13,30.05,10,10,10,21,8,31,0.00,0,,313
2012-11-7,65,47,29,25,23,21,63,41,19,30.07,29.92,29.80,10,10,10,14,5,15,0.00,0,,252
2012-11-8,55,42,29,28,24,20,78,55,32,29.91,29.74,29.61,10,10,10,13,5,16,0.00,0,,348
2012-11-9,53,39,25,40,27,21,92,67,42,29.59,29.54,29.47,10,6,1,23,12,37,0.26,6,Rain-Snow,12
2012-11-10,26,19,12,23,15,8,92,86,80,30.06,29.76,29.57,10,5,1,16,9,26,0.06,8,Rain-Snow,50
2012-11-11,25,13,1,14,7,1,100,75,50,30.33,30.15,29.89,10,10,2,28,10,40,T,1,,275
2012-11-12,27,16,5,16,9,0,77,64,51,30.44,30.37,30.30,10,10,10,18,4,29,0.00,1,,244
2012-11-13,36,28,19,24,19,14,84,73,61,30.39,30.32,30.26,10,10,10,8,4,12,0.00,0,,57
2012-11-14,40,28,16,28,22,14,92,78,64,30.34,30.26,30.17,10,10,8,12,3,13,0.00,1,,256
2012-11-15,40,30,20,27,21,18,84,66,48,30.42,30.33,30.24,10,10,10,12,5,13,0.00,0,,238
2012-11-16,43,31,19,28,23,17,91,74,57,30.25,30.15,30.04,10,10,10,9,4,12,0.00,2,,264
2012-11-17,48,37,25,30,25,21,88,69,49,30.17,30.07,29.96,10,10,10,13,5,14,0.00,0,,335
2012-11-18,52,39,26,32,28,24,85,65,44,30.06,29.95,29.87,10,10,10,18,7,22,0.00,1,,289
2012-11-19,49,39,28,31,27,23,85,67,49,30.20,30.15,30.06,10,10,10,12,5,13,0.00,0,,244
2012-11-20,53,42,30,33,28,24,78,59,39,30.21,30.09,29.95,10,10,10,12,5,14,0.00,0,,231
2012-11-21,60,44,27,32,26,21,92,58,23,29.96,29.87,29.77,10,10,10,23,8,30,0.00,1,,297
2012-11-22,43,31,18,25,10,2,70,46,22,30.53,30.26,29.87,10,10,9,36,14,45,0.00,0,Snow,320
2012-11-23,37,26,14,16,12,8,67,54,40,30.55,30.43,30.18,10,10,10,9,3,10,0.00,0,,330
2012-11-24,57,40,23,29,21,14,68,45,22,30.20,30.04,29.91,10,10,10,17,8,22,0.00,2,,257
2012-11-25,49,38,27,30,27,21,78,66,53,30.17,29.92,29.81,10,10,8,24,8,31,T,5,Snow,22
2012-11-26,37,26,15,21,17,14,77,61,44,30.37,30.27,30.18,10,10,5,24,5,30,T,2,Snow,286
2012-11-27,40,27,14,20,15,11,88,64,40,30.30,30.24,30.19,10,10,10,10,5,13,0.00,0,,275
2012-11-28,50,38,25,22,17,15,68,50,31,30.22,30.11,29.96,10,10,10,15,4,18,0.00,0,,181
2012-11-29,52,39,25,24,19,15,63,46,28,30.05,30.00,29.92,10,10,10,13,5,17,0.00,0,,280
2012-11-30,53,39,25,27,23,18,69,52,35,29.97,29.85,29.72,10,10,10,12,4,14,0.00,0,,193